createdAt,value
2019-03-20T00:00:03.247Z,2.41
2019-03-20T00:03:07.217Z,2.42
2019-03-20T00:06:11.055Z,2.43
2019-03-20T00:09:15.206Z,2.37
2019-03-20T00:12:19.050Z,2.40
2019-03-20T00:15:22.879Z,2.37
2019-03-20T00:18:26.674Z,2.37
2019-03-20T00:21:30.477Z,2.38
2019-03-20T00:24:34.306Z,2.37
2019-03-20T00:27:38.169Z,2.44
2019-03-20T00:30:42.132Z,2.37
2019-03-20T00:33:46.071Z,2.41
2019-03-20T00:36:49.884Z,2.38
2019-03-20T00:39:53.726Z,2.38
2019-03-20T00:42:57.532Z,2.39
2019-03-20T00:46:01.431Z,2.39
2019-03-20T00:49:05.362Z,2.42
2019-03-20T00:52:09.182Z,2.45
2019-03-20T00:55:13.228Z,2.47
2019-03-20T00:58:17.120Z,2.49
2019-03-20T01:01:21.093Z,2.50
2019-03-20T01:04:25.028Z,2.52
2019-03-20T01:07:28.817Z,2.59
2019-03-20T01:10:32.732Z,2.63
2019-03-20T01:13:36.580Z,2.64
2019-03-20T01:16:40.522Z,2.69
2019-03-20T01:19:44.473Z,2.70
2019-03-20T01:22:48.423Z,2.69
2019-03-20T01:25:52.340Z,2.72
2019-03-20T01:28:56.371Z,2.77
2019-03-20T01:32:00.274Z,2.76
2019-03-20T01:35:04.569Z,2.80
2019-03-20T01:38:08.979Z,2.82
2019-03-20T01:41:12.797Z,2.78
2019-03-20T01:44:16.675Z,2.81
2019-03-20T01:47:20.500Z,2.85
2019-03-20T01:50:24.429Z,2.92
2019-03-20T01:53:28.310Z,2.87
2019-03-20T01:56:32.149Z,2.89
2019-03-20T01:59:36.042Z,2.92
2019-03-20T02:02:39.954Z,2.92
2019-03-20T02:05:43.828Z,2.89
2019-03-20T02:08:47.686Z,2.87
2019-03-20T02:11:51.509Z,2.89
2019-03-20T02:14:55.345Z,2.86
2019-03-20T02:17:59.241Z,2.86
2019-03-20T02:21:03.337Z,2.85
2019-03-20T02:24:07.326Z,2.84
2019-03-20T02:27:11.214Z,2.89
2019-03-20T02:30:16.559Z,2.99
2019-03-20T02:33:20.432Z,3.00
2019-03-20T02:36:24.251Z,3.02
2019-03-20T02:39:28.165Z,3.01
2019-03-20T02:42:31.982Z,3.02
2019-03-20T02:45:35.927Z,3.00
2019-03-20T02:48:39.733Z,2.98
2019-03-20T02:51:43.594Z,2.97
2019-03-20T02:54:47.428Z,3.00
2019-03-20T02:57:51.298Z,2.97
2019-03-20T03:00:55.096Z,3.00
2019-03-20T03:03:58.892Z,3.04
2019-03-20T03:07:02.770Z,2.98
2019-03-20T03:10:07.037Z,2.96
2019-03-20T03:13:10.925Z,2.93
2019-03-20T03:16:14.732Z,3.02
2019-03-20T03:19:18.565Z,3.02
2019-03-20T03:22:22.426Z,3.02
2019-03-20T03:25:26.165Z,3.05
2019-03-20T03:28:29.973Z,3.04
2019-03-20T03:31:33.801Z,3.03
2019-03-20T03:34:37.591Z,3.05
2019-03-20T03:37:41.423Z,3.02
2019-03-20T03:40:45.356Z,3.02
2019-03-20T03:43:49.189Z,3.01
2019-03-20T03:46:52.985Z,3.02
2019-03-20T03:49:56.880Z,3.03
2019-03-20T03:53:00.697Z,3.02
2019-03-20T03:56:04.493Z,3.05
2019-03-20T03:59:08.433Z,3.03
2019-03-20T04:02:12.221Z,3.09
2019-03-20T04:05:16.125Z,3.06
2019-03-20T04:08:20.132Z,3.05
2019-03-20T04:11:24.006Z,3.07
2019-03-20T04:14:27.796Z,3.12
2019-03-20T04:17:31.592Z,3.20
2019-03-20T04:20:35.411Z,3.24
2019-03-20T04:23:39.236Z,3.33
2019-03-20T04:26:43.078Z,3.45
2019-03-20T04:29:46.908Z,3.51
2019-03-20T04:32:50.717Z,3.64
2019-03-20T04:35:54.637Z,3.70
2019-03-20T04:38:58.465Z,3.75
2019-03-20T04:42:02.275Z,3.73
2019-03-20T04:45:06.620Z,3.76
2019-03-20T04:48:10.527Z,3.89
2019-03-20T04:51:14.365Z,3.86
2019-03-20T04:54:18.158Z,3.87
2019-03-20T04:57:22.068Z,3.95
2019-03-20T05:00:25.893Z,3.96
2019-03-20T05:03:29.786Z,4.02
2019-03-20T05:06:33.574Z,4.16
2019-03-20T05:09:37.413Z,4.26
2019-03-20T05:12:41.302Z,4.53
2019-03-20T05:15:45.163Z,4.80
2019-03-20T05:18:48.984Z,4.84
2019-03-20T05:21:52.806Z,4.85
2019-03-20T05:24:56.625Z,5.02
2019-03-20T05:28:00.462Z,5.09
2019-03-20T05:31:04.373Z,5.28
2019-03-20T05:34:08.201Z,5.51
2019-03-20T05:37:12.043Z,5.78
2019-03-20T05:40:16.011Z,5.67
2019-03-20T05:43:19.849Z,5.76
2019-03-20T05:46:23.680Z,5.82
2019-03-20T05:49:27.495Z,5.78
2019-03-20T05:52:31.320Z,5.86
2019-03-20T05:55:35.158Z,5.92
2019-03-20T05:58:38.957Z,6.15
2019-03-20T06:01:42.779Z,6.03
2019-03-20T06:04:46.610Z,6.03
2019-03-20T06:07:50.435Z,6.08
2019-03-20T06:10:54.226Z,6.13
2019-03-20T06:13:58.041Z,6.14
2019-03-20T06:17:01.866Z,6.18
2019-03-20T06:20:05.942Z,6.32
2019-03-20T06:23:11.234Z,6.60
2019-03-20T06:26:15.159Z,6.72
2019-03-20T06:29:20.169Z,6.68
2019-03-20T06:32:24.067Z,6.68
2019-03-20T06:35:27.876Z,6.80
2019-03-20T06:38:31.682Z,6.96
2019-03-20T06:41:35.493Z,7.03
2019-03-20T06:44:39.288Z,7.05
2019-03-20T06:47:43.178Z,7.18
2019-03-20T06:50:46.983Z,7.21
2019-03-20T06:53:50.843Z,7.21
2019-03-20T06:56:54.733Z,7.31
2019-03-20T07:00:26.038Z,7.29
2019-03-20T07:04:03.138Z,7.23
2019-03-20T07:07:11.065Z,7.41
2019-03-20T07:10:35.288Z,7.45
2019-03-20T07:13:39.098Z,7.43
2019-03-20T07:16:42.945Z,7.32
2019-03-20T07:19:46.763Z,7.35
2019-03-20T07:22:50.581Z,7.48
2019-03-20T07:25:54.408Z,7.44
2019-03-20T07:28:58.298Z,7.38
2019-03-20T07:32:02.197Z,7.32
2019-03-20T07:35:06.210Z,7.51
2019-03-20T07:38:10.019Z,7.52
2019-03-20T07:41:13.863Z,7.61
2019-03-20T07:44:17.685Z,7.57
2019-03-20T07:47:21.493Z,7.52
2019-03-20T07:50:25.283Z,7.57
2019-03-20T07:53:29.111Z,7.50
2019-03-20T07:56:32.944Z,7.63
2019-03-20T07:59:36.744Z,7.50
2019-03-20T08:02:40.554Z,7.45
2019-03-20T08:05:44.439Z,7.48
2019-03-20T08:08:48.339Z,7.51
2019-03-20T08:11:52.122Z,7.57
2019-03-20T08:14:55.944Z,7.58
2019-03-20T08:17:59.753Z,7.36
2019-03-20T08:21:03.583Z,7.47
2019-03-20T08:24:07.393Z,7.60
2019-03-20T08:27:11.197Z,7.72
2019-03-20T08:30:15.579Z,7.72
2019-03-20T08:33:19.466Z,7.73
2019-03-20T08:36:23.317Z,7.61
2019-03-20T08:39:27.124Z,7.51
2019-03-20T08:42:30.939Z,7.59
2019-03-20T08:45:34.853Z,7.56
2019-03-20T08:48:38.740Z,7.69
2019-03-20T08:51:42.597Z,7.75
2019-03-20T08:54:46.413Z,7.50
2019-03-20T08:57:50.490Z,7.72
2019-03-20T09:00:54.442Z,7.86
2019-03-20T09:03:58.287Z,7.66
2019-03-20T09:07:02.148Z,7.73
2019-03-20T09:10:07.830Z,7.91
2019-03-20T09:13:11.753Z,7.77
2019-03-20T09:16:15.612Z,8.12
2019-03-20T09:19:19.492Z,8.08
2019-03-20T09:22:23.373Z,8.05
2019-03-20T09:25:27.271Z,8.19
2019-03-20T09:28:31.068Z,8.25
2019-03-20T09:31:34.888Z,8.25
2019-03-20T09:34:38.712Z,8.29
2019-03-20T09:37:51.187Z,8.26
2019-03-20T09:40:48.320Z,8.39
2019-03-20T09:43:52.121Z,8.44
2019-03-20T09:46:55.972Z,8.29
2019-03-20T09:49:59.809Z,8.27
2019-03-20T09:53:03.652Z,8.38
2019-03-20T09:56:07.467Z,8.45
2019-03-20T09:59:11.314Z,8.41
2019-03-20T10:02:15.168Z,8.38
2019-03-20T10:05:19.434Z,8.37
2019-03-20T10:08:23.256Z,8.39
2019-03-20T10:11:27.075Z,8.44
2019-03-20T10:14:30.988Z,8.52
2019-03-20T10:17:34.820Z,8.59
2019-03-20T10:20:38.658Z,8.72
2019-03-20T10:23:42.596Z,8.73
2019-03-20T10:26:46.411Z,8.77
2019-03-20T10:29:50.220Z,8.71
2019-03-20T10:32:54.165Z,8.75
2019-03-20T10:35:57.991Z,8.70
2019-03-20T10:39:06.761Z,8.85
2019-03-20T10:42:07.823Z,8.77
2019-03-20T10:45:12.628Z,8.78
2019-03-20T10:48:16.566Z,8.92
2019-03-20T10:51:20.409Z,9.07
2019-03-20T10:54:24.247Z,8.93
2019-03-20T10:57:28.096Z,9.12
2019-03-20T11:00:31.993Z,9.05
2019-03-20T11:03:35.949Z,8.97
2019-03-20T11:06:39.748Z,8.87
2019-03-20T11:09:43.723Z,8.94
2019-03-20T11:12:47.588Z,8.97
2019-03-20T11:15:51.518Z,9.02
2019-03-20T11:18:55.328Z,8.89
2019-03-20T11:21:59.237Z,9.04
2019-03-20T11:25:03.177Z,9.07
2019-03-20T11:28:06.982Z,9.07
2019-03-20T11:31:10.801Z,9.09
2019-03-20T11:34:14.651Z,9.26
2019-03-20T11:37:18.505Z,9.28
2019-03-20T11:40:27.370Z,9.29
2019-03-20T11:43:33.625Z,9.36
2019-03-20T11:46:37.567Z,9.30
2019-03-20T11:49:41.439Z,9.33
2019-03-20T11:52:45.360Z,9.44
2019-03-20T11:55:49.298Z,9.52
2019-03-20T11:58:53.130Z,9.49
2019-03-20T12:01:57.050Z,9.67
2019-03-20T12:05:00.934Z,9.52
2019-03-20T12:08:05.371Z,9.69
2019-03-20T12:11:09.314Z,9.67
2019-03-20T12:14:13.116Z,9.76
2019-03-20T12:17:16.961Z,9.81
2019-03-20T12:20:20.995Z,9.93
2019-03-20T12:23:24.907Z,9.70
2019-03-20T12:26:28.814Z,9.72
2019-03-20T12:29:32.772Z,9.91
2019-03-20T12:32:36.624Z,9.87
2019-03-20T12:35:40.609Z,9.91
2019-03-20T12:38:44.474Z,10.06
2019-03-20T12:41:48.341Z,10.14
2019-03-20T12:44:52.175Z,10.14
2019-03-20T12:47:56.034Z,10.15
2019-03-20T12:50:59.871Z,10.30
2019-03-20T12:54:03.798Z,10.20
2019-03-20T12:57:07.638Z,10.21
2019-03-20T13:00:14.580Z,10.32
2019-03-20T13:03:19.310Z,10.34
2019-03-20T13:06:23.190Z,10.19
2019-03-20T13:09:27.092Z,10.30
2019-03-20T13:12:30.921Z,10.24
2019-03-20T13:15:34.748Z,10.23
2019-03-20T13:18:38.614Z,10.39
2019-03-20T13:21:42.505Z,10.33
2019-03-20T13:24:46.394Z,10.31
2019-03-20T13:27:50.372Z,10.38
2019-03-20T13:31:00.284Z,10.20
2019-03-20T13:34:04.313Z,10.21
2019-03-20T13:37:08.265Z,10.08
2019-03-20T13:40:14.605Z,10.20
2019-03-20T13:43:17.890Z,10.28
2019-03-20T13:46:21.709Z,10.36
2019-03-20T13:49:25.583Z,10.36
2019-03-20T13:52:29.469Z,10.34
2019-03-20T13:55:33.280Z,10.27
2019-03-20T13:58:37.108Z,10.20
2019-03-20T14:01:40.995Z,10.19
2019-03-20T14:04:44.806Z,10.06
2019-03-20T14:07:48.878Z,10.18
2019-03-20T14:10:52.761Z,10.29
2019-03-20T14:13:56.629Z,10.37
2019-03-20T14:17:00.459Z,10.37
2019-03-20T14:20:04.608Z,10.17
2019-03-20T14:23:08.457Z,10.16
2019-03-20T14:26:12.468Z,10.33
2019-03-20T14:29:16.319Z,10.30
2019-03-20T14:32:20.159Z,10.35
2019-03-20T14:35:24.186Z,10.23
2019-03-20T14:38:28.014Z,10.18
2019-03-20T14:41:31.865Z,10.25
2019-03-20T14:44:35.686Z,10.12
2019-03-20T14:47:42.212Z,10.02
2019-03-20T14:50:45.058Z,10.09
2019-03-20T14:53:48.894Z,10.17
2019-03-20T14:56:52.776Z,10.18
2019-03-20T14:59:56.593Z,10.19
2019-03-20T15:03:00.570Z,10.25
2019-03-20T15:06:04.578Z,10.01
2019-03-20T15:09:09.581Z,10.17
2019-03-20T15:12:13.547Z,10.01
2019-03-20T15:15:35.236Z,10.03
2019-03-20T15:18:39.197Z,10.05
2019-03-20T15:21:43.043Z,10.09
2019-03-20T15:24:46.932Z,10.00
2019-03-20T15:27:50.764Z,9.94
2019-03-20T15:30:54.630Z,9.86
2019-03-20T15:33:58.483Z,9.89
2019-03-20T15:37:02.297Z,9.95
2019-03-20T15:40:07.912Z,9.90
2019-03-20T15:43:11.728Z,9.89
2019-03-20T15:46:15.549Z,9.95
2019-03-20T15:49:19.347Z,9.92
2019-03-20T15:52:23.147Z,9.99
2019-03-20T15:55:28.777Z,10.04
2019-03-20T15:58:32.575Z,9.90
2019-03-20T16:01:36.376Z,9.85
2019-03-20T16:04:40.267Z,9.87
2019-03-20T16:07:44.236Z,9.81
2019-03-20T16:10:48.012Z,9.65
2019-03-20T16:13:51.889Z,9.78
2019-03-20T16:16:55.697Z,9.78
2019-03-20T16:19:59.506Z,9.70
2019-03-20T16:23:03.421Z,9.72
2019-03-20T16:26:07.227Z,9.71
2019-03-20T16:29:11.029Z,9.49
2019-03-20T16:32:14.911Z,9.61
2019-03-20T16:35:21.361Z,9.76
2019-03-20T16:38:25.151Z,9.71
2019-03-20T16:41:28.965Z,9.54
2019-03-20T16:44:32.787Z,9.50
2019-03-20T16:47:36.611Z,9.64
2019-03-20T16:50:40.429Z,9.66
2019-03-20T16:53:44.300Z,9.51
2019-03-20T16:56:48.123Z,9.56
2019-03-20T16:59:51.944Z,9.61
2019-03-20T17:02:55.911Z,9.69
2019-03-20T17:05:59.729Z,9.64
2019-03-20T17:09:04.125Z,9.67
2019-03-20T17:12:08.007Z,9.54
2019-03-20T17:15:18.133Z,9.53
2019-03-20T17:18:21.962Z,9.53
2019-03-20T17:21:25.760Z,9.52
2019-03-20T17:24:29.560Z,9.47
2019-03-20T17:27:33.370Z,9.45
2019-03-20T17:30:37.477Z,9.44
2019-03-20T17:33:41.273Z,9.36
2019-03-20T17:36:45.117Z,9.34
2019-03-20T17:39:49.284Z,9.39
2019-03-20T17:42:53.159Z,9.38
2019-03-20T17:45:57.109Z,9.22
2019-03-20T17:49:00.942Z,9.09
2019-03-20T17:52:04.819Z,9.18
2019-03-20T17:55:08.848Z,9.13
2019-03-20T17:58:12.647Z,9.04
2019-03-20T18:01:16.591Z,8.75
2019-03-20T18:04:20.411Z,8.84
2019-03-20T18:07:24.229Z,9.00
2019-03-20T18:10:28.205Z,8.71
2019-03-20T18:13:32.100Z,8.84
2019-03-20T18:20:30.270Z,8.74
2019-03-20T18:23:34.103Z,8.81
2019-03-20T18:26:42.824Z,8.70
2019-03-20T18:29:46.667Z,8.78
2019-03-20T18:32:50.564Z,8.74
2019-03-20T18:35:54.485Z,8.90
2019-03-20T18:38:58.313Z,8.84
2019-03-20T18:42:02.120Z,8.97
2019-03-20T18:45:06.496Z,9.04
2019-03-20T18:48:10.325Z,8.83
2019-03-20T18:51:14.140Z,8.68
2019-03-20T18:54:17.985Z,8.92
2019-03-20T18:57:21.836Z,8.81
2019-03-20T19:00:26.059Z,9.03
2019-03-20T19:03:29.983Z,8.95
2019-03-20T19:06:33.802Z,8.97
2019-03-20T19:09:37.614Z,8.92
2019-03-20T19:12:41.493Z,8.86
2019-03-20T19:15:45.493Z,8.68
2019-03-20T19:18:49.365Z,8.67
2019-03-20T19:21:53.210Z,8.75
2019-03-20T19:24:57.076Z,8.78
2019-03-20T19:28:00.875Z,8.40
2019-03-20T19:31:04.846Z,8.50
2019-03-20T19:34:08.665Z,8.51
2019-03-20T19:37:12.488Z,8.48
2019-03-20T19:40:16.459Z,8.55
2019-03-20T19:43:22.676Z,8.41
2019-03-20T19:46:25.814Z,8.48
2019-03-20T19:49:29.624Z,8.46
2019-03-20T19:52:33.445Z,8.67
2019-03-20T19:55:37.531Z,8.74
2019-03-20T19:58:41.380Z,8.49
2019-03-20T20:01:45.194Z,8.49
2019-03-20T20:04:48.981Z,8.48
2019-03-20T20:07:52.864Z,8.72
2019-03-20T20:10:56.687Z,8.58
2019-03-20T20:14:00.508Z,8.31
2019-03-20T20:17:04.337Z,8.54
2019-03-20T20:20:10.652Z,8.31
2019-03-20T20:23:14.467Z,8.43
2019-03-20T20:26:18.297Z,8.35
2019-03-20T20:29:22.094Z,8.26
2019-03-20T20:32:25.942Z,8.16
2019-03-20T20:35:29.842Z,8.20
2019-03-20T20:38:33.646Z,8.14
2019-03-20T20:41:37.480Z,8.22
2019-03-20T20:44:41.299Z,8.29
2019-03-20T20:47:45.171Z,8.33
2019-03-20T20:50:48.988Z,8.22
2019-03-20T20:53:52.811Z,8.11
2019-03-20T20:56:56.644Z,8.31
2019-03-20T21:00:00.573Z,8.32
2019-03-20T21:03:04.475Z,8.39
2019-03-20T21:06:08.297Z,8.28
2019-03-20T21:09:12.206Z,7.95
2019-03-20T21:12:16.021Z,8.05
2019-03-20T21:15:34.277Z,8.15
2019-03-20T21:19:17.348Z,8.30
2019-03-20T21:23:01.243Z,8.40
2019-03-20T21:26:05.783Z,8.01
2019-03-20T21:29:37.208Z,7.82
2019-03-20T21:32:42.745Z,8.02
2019-03-20T21:36:22.146Z,7.99
2019-03-20T21:39:26.531Z,7.89
2019-03-20T21:43:19.645Z,8.05
2019-03-20T21:46:50.517Z,8.02
2019-03-20T21:49:54.877Z,8.14
2019-03-20T21:52:59.256Z,7.90
2019-03-20T21:56:31.343Z,8.23
2019-03-20T22:00:19.488Z,8.18
2019-03-20T22:03:23.852Z,8.00
2019-03-20T22:07:03.854Z,7.88
2019-03-20T22:10:58.454Z,8.13
2019-03-20T22:14:07.472Z,8.22
2019-03-20T22:17:51.223Z,8.08
2019-03-20T22:21:14.497Z,8.08
2019-03-20T22:24:58.343Z,8.12
2019-03-20T22:28:57.059Z,8.17
2019-03-20T22:32:43.977Z,8.14
2019-03-20T22:36:01.190Z,8.02
2019-03-20T22:39:42.076Z,8.04
2019-03-20T22:42:50.974Z,8.01
2019-03-20T22:46:35.088Z,8.28
2019-03-20T22:50:26.078Z,8.33
2019-03-20T22:54:23.342Z,8.30
2019-03-20T22:57:47.500Z,8.25
2019-03-20T23:00:52.313Z,8.31
2019-03-20T23:04:01.412Z,8.02
2019-03-20T23:07:05.918Z,8.23
2019-03-20T23:10:12.870Z,8.03
2019-03-20T23:13:19.180Z,7.94
2019-03-20T23:16:23.317Z,7.92
2019-03-20T23:19:27.668Z,7.92
2019-03-20T23:22:32.066Z,8.12
2019-03-20T23:25:36.423Z,8.20
2019-03-20T23:28:41.549Z,8.22
2019-03-20T23:31:46.007Z,8.40
2019-03-20T23:34:50.361Z,8.04
2019-03-20T23:37:54.726Z,8.01
2019-03-20T23:40:59.108Z,8.60
2019-03-20T23:44:03.542Z,8.64
2019-03-20T23:47:07.917Z,8.49
2019-03-20T23:50:12.297Z,8.57
2019-03-20T23:53:16.663Z,8.62
2019-03-20T23:56:21.201Z,8.65
2019-03-20T23:59:25.569Z,8.68
